createdAt,value
2019-03-13T00:02:27.921Z,56.80
2019-03-13T00:04:57.861Z,57.00
2019-03-13T00:07:27.699Z,55.70
2019-03-13T00:09:57.464Z,57.10
2019-03-13T00:12:27.314Z,55.30
2019-03-13T00:14:57.109Z,57.40
2019-03-13T00:17:26.937Z,54.50
2019-03-13T00:19:56.840Z,54.50
2019-03-13T00:22:27.705Z,55.00
2019-03-13T00:24:57.468Z,54.80
2019-03-13T00:27:27.314Z,54.30
2019-03-13T00:29:57.100Z,57.80
2019-03-13T00:32:26.827Z,54.60
2019-03-13T00:34:56.647Z,54.30
2019-03-13T00:37:26.381Z,54.50
2019-03-13T00:39:56.218Z,53.50
2019-03-13T00:42:25.997Z,53.30
2019-03-13T00:44:55.858Z,53.60
2019-03-13T00:47:25.880Z,52.20
2019-03-13T00:49:55.902Z,53.20
2019-03-13T00:52:25.707Z,53.80
2019-03-13T00:54:55.608Z,54.70
2019-03-13T00:57:25.617Z,52.70
2019-03-13T00:59:55.601Z,51.90
2019-03-13T01:02:45.306Z,52.30
2019-03-13T01:05:21.787Z,53.10
2019-03-13T01:07:51.512Z,53.30
2019-03-13T01:10:21.292Z,53.00
2019-03-13T01:12:51.049Z,53.10
2019-03-13T01:15:20.896Z,51.40
2019-03-13T01:17:50.664Z,51.80
2019-03-13T01:20:20.477Z,52.80
2019-03-13T01:22:50.218Z,54.70
2019-03-13T01:25:20.013Z,52.50
2019-03-13T01:27:49.795Z,51.70
2019-03-13T01:30:19.658Z,52.20
2019-03-13T01:32:54.859Z,50.90
2019-03-13T01:35:31.573Z,48.90
2019-03-13T01:38:01.313Z,48.50
2019-03-13T01:40:31.083Z,48.80
2019-03-13T01:43:00.832Z,52.20
2019-03-13T01:45:30.618Z,49.50
2019-03-13T01:48:00.405Z,51.40
2019-03-13T01:50:30.217Z,50.40
2019-03-13T01:52:59.932Z,51.70
2019-03-13T01:55:29.698Z,48.90
2019-03-13T01:57:59.436Z,48.80
2019-03-13T02:00:29.243Z,48.60
2019-03-13T02:02:59.138Z,47.80
2019-03-13T02:05:28.990Z,48.00
2019-03-13T02:07:58.857Z,49.20
2019-03-13T02:10:28.645Z,49.90
2019-03-13T02:12:58.406Z,51.80
2019-03-13T02:15:28.400Z,49.70
2019-03-13T02:17:58.327Z,49.20
2019-03-13T02:20:29.309Z,49.50
2019-03-13T02:22:59.117Z,49.50
2019-03-13T02:25:28.879Z,47.90
2019-03-13T02:27:58.623Z,48.10
2019-03-13T02:30:29.304Z,47.30
2019-03-13T02:32:59.099Z,49.60
2019-03-13T02:35:28.973Z,49.20
2019-03-13T02:37:58.935Z,47.50
2019-03-13T02:40:28.734Z,48.70
2019-03-13T02:42:58.524Z,49.90
2019-03-13T02:45:28.251Z,47.30
2019-03-13T02:47:58.069Z,47.20
2019-03-13T02:50:27.854Z,49.10
2019-03-13T02:52:57.646Z,50.60
2019-03-13T02:55:27.409Z,50.50
2019-03-13T02:57:57.228Z,49.00
2019-03-13T03:00:58.283Z,48.80
2019-03-13T03:03:36.765Z,48.20
2019-03-13T03:06:06.667Z,47.70
2019-03-13T03:08:36.424Z,48.30
2019-03-13T03:11:06.224Z,49.60
2019-03-13T03:13:36.020Z,50.10
2019-03-13T03:16:05.804Z,49.50
2019-03-13T03:18:35.685Z,51.10
2019-03-13T03:21:05.480Z,48.80
2019-03-13T03:23:35.233Z,50.70
2019-03-13T03:26:05.056Z,49.20
2019-03-13T03:28:34.819Z,50.10
2019-03-13T03:31:04.803Z,49.20
2019-03-13T03:33:37.085Z,49.80
2019-03-13T03:36:06.826Z,48.80
2019-03-13T03:38:36.532Z,48.70
2019-03-13T03:41:06.323Z,47.80
2019-03-13T03:43:40.705Z,49.60
2019-03-13T03:46:07.350Z,48.90
2019-03-13T03:48:37.059Z,52.80
2019-03-13T03:51:06.732Z,50.00
2019-03-13T03:53:36.486Z,49.40
2019-03-13T03:56:06.189Z,49.30
2019-03-13T03:58:35.914Z,48.00
2019-03-13T04:01:05.570Z,48.80
2019-03-13T04:03:35.447Z,49.00
2019-03-13T04:06:05.246Z,49.40
2019-03-13T04:08:37.790Z,47.30
2019-03-13T04:11:06.349Z,47.80
2019-03-13T04:13:36.181Z,47.10
2019-03-13T04:16:06.061Z,47.40
2019-03-13T04:18:35.891Z,51.60
2019-03-13T04:21:05.755Z,47.20
2019-03-13T04:23:35.484Z,47.20
2019-03-13T04:26:05.222Z,47.20
2019-03-13T04:28:34.954Z,47.10
2019-03-13T04:31:04.672Z,47.80
2019-03-13T04:33:34.447Z,47.70
2019-03-13T04:36:04.153Z,47.70
2019-03-13T04:38:34.012Z,46.60
2019-03-13T04:41:03.752Z,47.00
2019-03-13T04:43:33.454Z,46.40
2019-03-13T04:46:03.149Z,47.40
2019-03-13T04:48:32.903Z,46.60
2019-03-13T04:51:02.578Z,46.20
2019-03-13T04:53:32.378Z,46.90
2019-03-13T04:56:02.093Z,46.60
2019-03-13T04:58:31.804Z,45.40
2019-03-13T05:01:01.491Z,45.90
2019-03-13T05:03:31.267Z,43.80
2019-03-13T05:06:04.784Z,45.10
2019-03-13T05:08:45.064Z,43.90
2019-03-13T05:11:11.508Z,45.10
2019-03-13T05:13:41.322Z,44.20
2019-03-13T05:16:11.035Z,44.80
2019-03-13T05:18:40.897Z,44.70
2019-03-13T05:21:10.584Z,43.90
2019-03-13T05:23:40.312Z,46.60
2019-03-13T05:26:09.974Z,44.30
2019-03-13T05:28:39.681Z,44.20
2019-03-13T05:31:09.438Z,45.40
2019-03-13T05:33:39.141Z,46.80
2019-03-13T05:36:08.911Z,45.20
2019-03-13T05:38:38.625Z,45.70
2019-03-13T05:41:08.315Z,45.00
2019-03-13T05:43:38.026Z,46.70
2019-03-13T05:46:07.822Z,49.70
2019-03-13T05:48:37.520Z,47.20
2019-03-13T05:51:07.231Z,47.80
2019-03-13T05:53:36.936Z,47.70
2019-03-13T05:56:09.480Z,46.80
2019-03-13T05:58:39.257Z,48.20
2019-03-13T06:01:08.962Z,49.40
2019-03-13T06:03:40.178Z,52.50
2019-03-13T06:06:10.011Z,58.60
2019-03-13T06:09:34.213Z,65.90
2019-03-13T06:12:04.467Z,67.90
2019-03-13T06:14:34.171Z,67.80
2019-03-13T06:17:04.006Z,69.20
2019-03-13T06:19:37.100Z,69.20
2019-03-13T06:22:06.778Z,71.80
2019-03-13T06:24:37.134Z,69.80
2019-03-13T06:27:06.789Z,69.60
2019-03-13T06:29:36.484Z,69.70
2019-03-13T06:32:06.266Z,69.50
2019-03-13T06:34:35.950Z,69.30
2019-03-13T06:37:07.324Z,69.10
2019-03-13T06:39:37.003Z,69.10
2019-03-13T06:42:06.735Z,68.00
2019-03-13T06:44:36.405Z,68.90
2019-03-13T06:47:06.139Z,68.30
2019-03-13T06:49:35.885Z,69.70
2019-03-13T06:52:05.701Z,68.90
2019-03-13T06:54:35.504Z,68.00
2019-03-13T06:57:05.126Z,66.30
2019-03-13T06:59:56.935Z,65.30
2019-03-13T07:02:34.727Z,64.20
2019-03-13T07:05:11.431Z,65.70
2019-03-13T07:07:51.638Z,64.20
2019-03-13T07:10:43.059Z,64.90
2019-03-13T07:13:34.545Z,65.20
2019-03-13T07:16:32.244Z,65.10
2019-03-13T07:19:19.372Z,65.00
2019-03-13T07:22:14.103Z,66.10
2019-03-13T07:25:05.461Z,66.60
2019-03-13T07:27:54.159Z,65.40
2019-03-13T07:30:42.757Z,67.60
2019-03-13T07:33:43.468Z,65.40
2019-03-13T07:36:34.785Z,64.40
2019-03-13T07:39:23.380Z,65.70
2019-03-13T07:42:18.064Z,69.90
2019-03-13T07:45:16.180Z,71.80
2019-03-13T07:48:04.960Z,68.80
2019-03-13T07:50:53.601Z,66.00
2019-03-13T07:53:45.271Z,62.80
2019-03-13T07:56:36.913Z,58.40
2019-03-13T07:59:28.307Z,58.40
2019-03-13T08:02:18.520Z,58.50
2019-03-13T08:04:54.040Z,58.10
2019-03-13T08:07:45.722Z,57.80
2019-03-13T08:10:40.420Z,53.00
2019-03-13T08:13:31.792Z,42.40
2019-03-13T08:16:18.956Z,40.10
2019-03-13T08:19:10.581Z,37.40
2019-03-13T08:22:09.694Z,35.00
2019-03-13T08:25:04.322Z,33.00
2019-03-13T08:27:59.223Z,32.20
2019-03-13T08:30:39.276Z,31.90
2019-03-13T08:33:13.854Z,27.00
2019-03-13T08:36:14.507Z,24.30
2019-03-13T08:39:00.447Z,22.20
2019-03-13T08:42:01.330Z,21.00
2019-03-13T08:44:52.920Z,21.60
2019-03-13T08:47:50.722Z,21.80
2019-03-13T08:50:34.292Z,24.00
2019-03-13T08:53:22.883Z,29.00
2019-03-13T08:56:17.559Z,35.20
2019-03-13T08:59:08.875Z,39.00
2019-03-13T09:01:50.701Z,42.10
2019-03-13T09:04:42.512Z,43.10
2019-03-13T09:07:37.179Z,41.70
2019-03-13T09:10:42.771Z,46.60
2019-03-13T09:13:23.037Z,36.50
2019-03-13T09:16:19.648Z,28.00
2019-03-13T09:19:08.099Z,26.20
2019-03-13T09:21:57.020Z,25.50
2019-03-13T09:25:11.221Z,26.00
2019-03-13T09:27:57.050Z,27.00
2019-03-13T09:31:00.693Z,24.60
2019-03-13T09:33:55.061Z,26.60
2019-03-13T09:36:42.065Z,34.00
2019-03-13T09:39:36.648Z,34.80
2019-03-13T09:42:22.083Z,39.00
2019-03-13T09:45:09.296Z,34.30
2019-03-13T09:47:45.830Z,34.60
2019-03-13T09:50:37.195Z,33.50
2019-03-13T09:53:18.025Z,33.20
2019-03-13T09:56:05.182Z,33.80
2019-03-13T09:58:59.747Z,32.50
2019-03-13T10:02:06.500Z,32.00
2019-03-13T10:04:57.828Z,33.90
2019-03-13T10:07:48.476Z,33.90
2019-03-13T10:10:36.920Z,33.20
2019-03-13T10:13:37.403Z,34.90
2019-03-13T10:16:16.610Z,33.50
2019-03-13T10:19:08.204Z,36.10
2019-03-13T10:21:55.899Z,34.90
2019-03-13T10:24:44.529Z,35.10
2019-03-13T10:27:30.419Z,34.70
2019-03-13T10:30:17.978Z,33.30
2019-03-13T10:33:09.374Z,30.80
2019-03-13T10:35:57.958Z,30.30
2019-03-13T10:38:55.512Z,32.40
2019-03-13T10:41:53.156Z,31.70
2019-03-13T10:44:41.762Z,32.80
2019-03-13T10:47:45.406Z,31.00
2019-03-13T10:50:46.842Z,31.40
2019-03-13T10:53:35.417Z,29.10
2019-03-13T10:56:24.058Z,30.60
2019-03-13T10:59:15.831Z,30.70
2019-03-13T11:01:55.266Z,30.70
2019-03-13T11:04:33.450Z,28.20
2019-03-13T11:07:22.079Z,29.10
2019-03-13T11:10:00.308Z,30.00
2019-03-13T11:12:51.907Z,29.00
2019-03-13T11:15:30.230Z,28.50
2019-03-13T11:18:18.362Z,28.10
2019-03-13T11:21:10.365Z,28.00
2019-03-13T11:24:02.039Z,28.40
2019-03-13T11:26:49.658Z,27.90
2019-03-13T11:29:53.318Z,27.50
2019-03-13T11:32:44.676Z,29.10
2019-03-13T11:35:42.416Z,31.30
2019-03-13T11:38:49.179Z,29.10
2019-03-13T11:41:30.607Z,29.20
2019-03-13T11:44:19.276Z,28.40
2019-03-13T11:47:08.893Z,28.80
2019-03-13T11:50:00.628Z,29.30
2019-03-13T11:52:47.792Z,29.60
2019-03-13T11:55:25.938Z,29.00
2019-03-13T11:58:14.558Z,29.60
2019-03-13T12:01:21.211Z,29.10
2019-03-13T12:04:21.768Z,29.20
2019-03-13T12:07:09.256Z,28.70
2019-03-13T12:09:56.423Z,29.80
2019-03-13T12:12:43.618Z,30.10
2019-03-13T12:15:35.249Z,29.00
2019-03-13T12:18:24.866Z,30.70
2019-03-13T12:21:12.658Z,28.40
2019-03-13T12:24:02.517Z,28.90
2019-03-13T12:26:49.692Z,29.00
2019-03-13T12:29:41.342Z,27.90
2019-03-13T12:32:28.896Z,28.50
2019-03-13T12:35:16.331Z,28.90
2019-03-13T12:38:23.120Z,28.50
2019-03-13T12:41:04.251Z,27.50
2019-03-13T12:43:51.304Z,30.90
2019-03-13T12:46:57.456Z,27.30
2019-03-13T12:49:32.766Z,26.90
2019-03-13T12:52:24.132Z,26.00
2019-03-13T12:55:11.104Z,27.00
2019-03-13T12:57:58.103Z,27.60
2019-03-13T13:00:40.797Z,27.10
2019-03-13T13:03:32.445Z,27.70
2019-03-13T13:06:36.440Z,28.40
2019-03-13T13:09:25.676Z,27.70
2019-03-13T13:12:20.934Z,29.20
2019-03-13T13:14:59.392Z,27.90
2019-03-13T13:17:45.929Z,27.70
2019-03-13T13:20:15.745Z,29.40
2019-03-13T13:22:45.447Z,26.60
2019-03-13T13:25:15.212Z,27.70
2019-03-13T13:27:44.912Z,27.30
2019-03-13T13:30:17.583Z,27.60
2019-03-13T13:32:46.971Z,26.70
2019-03-13T13:35:16.679Z,26.70
2019-03-13T13:37:46.406Z,25.40
2019-03-13T13:40:16.289Z,25.40
2019-03-13T13:42:45.998Z,26.70
2019-03-13T13:45:41.208Z,25.50
2019-03-13T13:48:10.974Z,25.50
2019-03-13T13:50:40.736Z,24.80
2019-03-13T13:53:10.412Z,26.80
2019-03-13T13:55:41.875Z,24.90
2019-03-13T13:58:11.601Z,24.60
2019-03-13T14:00:41.464Z,24.50
2019-03-13T14:03:11.144Z,25.10
2019-03-13T14:05:41.314Z,24.80
2019-03-13T14:08:11.169Z,24.70
2019-03-13T14:10:40.899Z,25.60
2019-03-13T14:13:10.821Z,24.00
2019-03-13T14:15:40.610Z,24.30
2019-03-13T14:18:10.260Z,23.90
2019-03-13T14:20:39.975Z,25.50
2019-03-13T14:23:12.446Z,24.90
2019-03-13T14:25:42.206Z,24.90
2019-03-13T14:28:12.008Z,25.10
2019-03-13T14:30:41.728Z,26.00
2019-03-13T14:33:13.516Z,25.70
2019-03-13T14:35:46.152Z,26.60
2019-03-13T14:38:14.746Z,26.70
2019-03-13T14:40:44.529Z,27.40
2019-03-13T14:43:14.254Z,27.00
2019-03-13T14:45:43.985Z,27.00
2019-03-13T14:48:14.865Z,27.50
2019-03-13T14:50:44.719Z,28.10
2019-03-13T14:53:14.536Z,27.60
2019-03-13T14:55:45.960Z,29.10
2019-03-13T14:58:15.736Z,27.90
2019-03-13T15:00:45.449Z,28.70
2019-03-13T15:03:18.023Z,27.00
2019-03-13T15:05:50.940Z,26.70
2019-03-13T15:08:20.648Z,27.00
2019-03-13T15:10:50.359Z,27.20
2019-03-13T15:13:20.182Z,28.00
2019-03-13T15:15:49.867Z,27.00
2019-03-13T15:18:19.540Z,27.60
2019-03-13T15:20:49.240Z,26.20
2019-03-13T15:23:18.996Z,25.40
2019-03-13T15:25:48.750Z,24.80
2019-03-13T15:28:18.421Z,26.10
2019-03-13T15:30:48.199Z,25.60
2019-03-13T15:33:17.914Z,26.80
2019-03-13T15:35:47.696Z,26.40
2019-03-13T15:38:17.359Z,26.90
2019-03-13T15:40:47.076Z,26.60
2019-03-13T15:43:16.860Z,26.80
2019-03-13T15:45:46.647Z,26.60
2019-03-13T15:48:19.104Z,27.00
2019-03-13T15:50:48.945Z,27.80
2019-03-13T15:53:18.606Z,28.20
2019-03-13T15:55:48.341Z,29.80
2019-03-13T15:58:19.665Z,29.20
2019-03-13T16:00:49.394Z,29.30
2019-03-13T16:03:19.069Z,28.80
2019-03-13T16:05:48.774Z,29.00
2019-03-13T16:08:21.727Z,29.00
2019-03-13T16:10:51.461Z,29.10
2019-03-13T16:13:21.199Z,30.10
2019-03-13T16:15:50.939Z,29.80
2019-03-13T16:18:20.796Z,30.50
2019-03-13T16:20:53.329Z,31.00
2019-03-13T16:23:23.141Z,32.80
2019-03-13T16:25:53.056Z,32.00
2019-03-13T16:28:22.740Z,31.50
2019-03-13T16:30:52.806Z,30.60
2019-03-13T16:33:22.547Z,31.40
2019-03-13T16:35:52.251Z,31.60
2019-03-13T16:38:21.992Z,32.20
2019-03-13T16:40:51.704Z,32.30
2019-03-13T16:43:21.415Z,32.30
2019-03-13T16:45:51.060Z,33.20
2019-03-13T16:48:23.844Z,32.80
2019-03-13T16:50:53.618Z,33.80
2019-03-13T16:53:23.375Z,33.40
2019-03-13T16:55:53.193Z,33.70
2019-03-13T16:58:22.913Z,34.00
2019-03-13T17:00:52.712Z,34.70
2019-03-13T17:03:22.527Z,34.80
2019-03-13T17:05:52.315Z,34.40
2019-03-13T17:08:22.117Z,33.60
2019-03-13T17:10:55.781Z,34.00
2019-03-13T17:13:25.599Z,34.40
2019-03-13T17:15:55.330Z,33.50
2019-03-13T17:18:25.658Z,33.70
2019-03-13T17:20:55.367Z,33.50
2019-03-13T17:23:28.154Z,34.60
2019-03-13T17:25:57.858Z,35.10
2019-03-13T17:28:27.596Z,34.90
2019-03-13T17:30:57.323Z,35.90
2019-03-13T17:33:29.852Z,35.30
2019-03-13T17:35:59.721Z,37.80
2019-03-13T17:38:29.473Z,36.10
2019-03-13T17:40:59.192Z,35.70
2019-03-13T17:43:39.118Z,35.70
2019-03-13T17:46:01.514Z,36.20
2019-03-13T17:48:31.236Z,36.40
2019-03-13T17:51:00.957Z,36.90
2019-03-13T17:53:30.696Z,38.10
2019-03-13T17:56:00.392Z,37.70
2019-03-13T17:58:30.102Z,39.20
2019-03-13T18:00:59.763Z,37.30
2019-03-13T18:03:29.456Z,36.90
2019-03-13T18:05:59.124Z,38.10
2019-03-13T18:08:29.067Z,38.20
2019-03-13T18:10:58.756Z,37.80
2019-03-13T18:13:31.395Z,37.20
2019-03-13T18:16:01.090Z,37.30
2019-03-13T18:18:30.855Z,37.00
2019-03-13T18:21:00.597Z,36.90
2019-03-13T18:23:30.387Z,36.70
2019-03-13T18:26:00.213Z,36.60
2019-03-13T18:28:29.970Z,37.40
2019-03-13T18:31:02.054Z,38.10
2019-03-13T18:33:33.016Z,38.60
2019-03-13T18:36:02.713Z,39.50
2019-03-13T18:38:32.539Z,39.90
2019-03-13T18:41:02.207Z,39.70
2019-03-13T18:43:31.991Z,40.60
2019-03-13T18:46:01.666Z,39.70
2019-03-13T18:48:31.483Z,39.10
2019-03-13T18:51:01.257Z,38.50
2019-03-13T18:53:31.065Z,39.20
2019-03-13T18:56:00.880Z,40.20
2019-03-13T18:58:30.626Z,38.50
2019-03-13T19:01:00.426Z,38.10
2019-03-13T19:03:30.155Z,39.20
2019-03-13T19:06:00.035Z,38.70
2019-03-13T19:08:29.896Z,38.80
2019-03-13T19:10:59.573Z,39.00
2019-03-13T19:13:29.387Z,40.20
2019-03-13T19:16:02.108Z,41.20
2019-03-13T19:18:31.871Z,41.30
2019-03-13T19:21:01.605Z,42.30
2019-03-13T19:23:31.628Z,42.30
2019-03-13T19:26:01.468Z,43.00
2019-03-13T19:28:31.273Z,44.30
2019-03-13T19:31:01.151Z,44.80
2019-03-13T19:33:30.881Z,45.60
2019-03-13T19:36:00.610Z,45.70
2019-03-13T19:38:30.376Z,45.40
2019-03-13T19:41:00.252Z,45.20
2019-03-13T19:43:30.065Z,46.10
2019-03-13T19:45:59.888Z,46.40
2019-03-13T19:48:29.732Z,46.40
2019-03-13T19:50:59.589Z,46.60
2019-03-13T19:53:29.341Z,47.00
2019-03-13T19:55:59.473Z,45.80
2019-03-13T19:58:29.219Z,45.20
2019-03-13T20:00:59.039Z,44.70
2019-03-13T20:03:28.772Z,45.00
2019-03-13T20:05:58.628Z,43.80
2019-03-13T20:08:28.401Z,44.30
2019-03-13T20:10:58.724Z,44.90
2019-03-13T20:13:28.540Z,45.30
2019-03-13T20:15:58.291Z,44.20
2019-03-13T20:18:28.284Z,44.10
2019-03-13T20:20:59.840Z,43.50
2019-03-13T20:23:32.644Z,44.40
2019-03-13T20:26:02.380Z,43.30
2019-03-13T20:28:32.417Z,44.00
2019-03-13T20:31:02.203Z,44.40
2019-03-13T20:33:31.981Z,46.30
2019-03-13T20:36:02.090Z,44.60
2019-03-13T20:38:31.864Z,45.70
2019-03-13T20:41:01.608Z,45.50
2019-03-13T20:43:34.410Z,45.60
2019-03-13T20:46:04.266Z,45.40
2019-03-13T20:48:34.116Z,46.70
2019-03-13T20:51:03.872Z,46.50
2019-03-13T20:53:33.509Z,45.90
2019-03-13T20:56:03.352Z,44.60
2019-03-13T20:58:33.207Z,45.30
2019-03-13T21:01:07.019Z,44.80
2019-03-13T21:03:36.858Z,45.00
2019-03-13T21:06:06.645Z,44.40
2019-03-13T21:08:36.493Z,42.20
2019-03-13T21:11:06.260Z,41.80
2019-03-13T21:13:35.943Z,40.50
2019-03-13T21:16:05.701Z,40.70
2019-03-13T21:18:35.379Z,40.30
2019-03-13T21:21:05.082Z,40.00
2019-03-13T21:23:34.803Z,40.20
2019-03-13T21:26:04.593Z,40.10
2019-03-13T21:28:34.355Z,39.90
2019-03-13T21:31:04.222Z,39.90
2019-03-13T21:33:34.033Z,40.70
2019-03-13T21:36:03.813Z,39.60
2019-03-13T21:38:33.439Z,39.90
2019-03-13T21:41:03.191Z,40.00
2019-03-13T21:43:32.963Z,39.10
2019-03-13T21:46:02.683Z,39.20
2019-03-13T21:48:32.394Z,39.40
2019-03-13T21:51:03.646Z,39.60
2019-03-13T21:53:33.329Z,39.70
2019-03-13T21:56:03.746Z,38.60
2019-03-13T21:58:34.630Z,39.60
2019-03-13T22:01:04.875Z,40.50
2019-03-13T22:03:34.662Z,39.20
2019-03-13T22:06:04.391Z,38.80
2019-03-13T22:08:34.049Z,40.10
2019-03-13T22:11:03.913Z,39.30
2019-03-13T22:13:33.603Z,38.80
2019-03-13T22:16:03.402Z,38.60
2019-03-13T22:18:33.123Z,38.80
2019-03-13T22:21:02.877Z,39.00
2019-03-13T22:23:32.644Z,39.40
2019-03-13T22:26:02.539Z,39.70
2019-03-13T22:28:32.472Z,39.50
2019-03-13T22:31:05.272Z,40.20
2019-03-13T22:33:34.952Z,41.10
2019-03-13T22:36:04.738Z,40.60
2019-03-13T22:38:34.495Z,41.90
2019-03-13T22:41:04.426Z,41.50
2019-03-13T22:43:34.132Z,42.30
2019-03-13T22:46:03.835Z,44.60
2019-03-13T22:48:33.595Z,45.20
2019-03-13T22:51:03.346Z,46.70
2019-03-13T22:53:33.012Z,45.50
2019-03-13T22:56:02.783Z,45.90
2019-03-13T22:58:32.438Z,46.70
2019-03-13T23:01:15.414Z,47.20
2019-03-13T23:03:47.353Z,47.70
2019-03-13T23:06:17.096Z,47.60
2019-03-13T23:08:46.753Z,49.70
2019-03-13T23:11:16.631Z,48.40
2019-03-13T23:13:46.347Z,48.60
2019-03-13T23:16:16.068Z,50.50
2019-03-13T23:18:45.746Z,51.30
2019-03-13T23:21:15.868Z,51.30
2019-03-13T23:23:45.946Z,52.30
2019-03-13T23:26:16.101Z,53.00
2019-03-13T23:28:46.143Z,54.10
2019-03-13T23:31:16.198Z,53.00
2019-03-13T23:33:46.189Z,53.60
2019-03-13T23:36:16.259Z,54.50
2019-03-13T23:38:46.246Z,55.00
2019-03-13T23:41:16.255Z,55.50
2019-03-13T23:43:46.248Z,55.50
2019-03-13T23:46:16.282Z,57.40
2019-03-13T23:48:46.351Z,57.40
2019-03-13T23:51:16.458Z,57.10
2019-03-13T23:53:46.473Z,58.40
2019-03-13T23:56:16.440Z,55.30
2019-03-13T23:58:46.475Z,55.40
